MMIA

Details ICAO MMIA (CLQ)
Name COLIMA
Region Mexico
Timezone America/Mexico_City (UTC-6.0)
Plans Departing 9
Arriving 11
Stats Elevation 2,467 ft / 752 m (AMSL)
Location 19.276968° -103.577536°
Runways 1
Magnetic Variation 6.319° E
Sunrise 2017-12-16 13:22:17 UTC / 2017-12-16 07:22:17 Local
Sunset 2017-12-17 00:20:38 UTC / 2017-12-16 18:20:38 Local
Advertisement - Login to hide

Runways

ID Width Length Bearing (true) Bearing (mag) Surface Threshold Offset Overrun Length
07 148 ft / 45 m 7,533 ft / 2,296 m 73.78° 67.46° Asphalt 0 ft / 0 m 200 ft / 61 m
25 148 ft / 45 m 7,533 ft / 2,296 m 253.79° 247.47° Asphalt 0 ft / 0 m 200 ft / 61 m

Map

Weather


0- 5 10 15 20 25 30 35+ Temperature / ° C

Clouds and Precipitation
Forecast for 2017-12-16 18:00 UTC. Updated an hour ago

Ground ~20,000 ft ~40,000 ft Winds

METAR

MMIA 161352Z 00000KT 8SM BKN100 21/16 A3004 RMK 6//// 8/020

TAF

Not found

Frequencies

Tower 118.90 MHz TWR
Warning: Do not use this data for real-world aviation or navigation. No guarantee of current accuracy is given.